Time;durP1;ratioP1;P1;durP2;ratioP2;P2;SDS_P1;SDS_P2;PMS_P1;PMS_P2;Temp;Humidity;BMP_temperature;BMP_pressure;BME280_temperature;BME280_humidity;BME280_pressure;Samples;Min_cycle;Max_cycle;Signal;HPM_P1;HPM_P2
2022/02/05 00:00:31;;;;;;;;;;;;;;;-2.50;83.02;100030.88;5092703;28;819;-58
2022/02/05 00:08:49;;;;;;;;;;;;;;;-2.16;82.19;100028.66;5092488;28;1913;-57
2022/02/05 00:14:24;;;;;;;;;;;;;;;-1.58;81.00;100045.75;5092473;28;800;-55
2022/02/05 00:43:56;;;;;;;;;;;;;;;-0.89;78.40;100010.56;5071830;28;661;-56
2022/02/05 00:46:25;;;;;;;;;;;;;;;-0.79;78.35;100014.88;5071929;28;1953;-56
2022/02/05 00:48:51;;;;;;;;;;;;;;;-0.70;78.14;100004.81;5071421;28;874;-55
2022/02/05 00:51:30;;;;;;;;;;;;;;;-0.62;77.75;99997.75;5078405;28;826;-56
2022/02/05 00:54:19;;;;;;;;;;;;;;;-0.81;77.68;99995.41;5074008;28;930;-57
2022/02/05 00:59:15;;;;;;;;;;;;;;;-1.11;78.25;99997.16;5071670;28;708;-56
2022/02/05 01:01:42;;;;;;;;;;;;;;;-1.12;79.62;99999.09;5071550;28;866;-56
2022/02/05 01:04:08;;;;;;;;;;;;;;;-0.74;78.54;99994.91;5071741;28;874;-56
2022/02/05 01:06:36;;;;;;;;;;;;;;;-0.82;78.14;99991.88;5071346;28;1941;-56
2022/02/05 01:09:06;;;;;;;;;;;;;;;-0.82;77.71;99985.66;5071542;28;846;-56
2022/02/05 01:11:33;;;;;;;;;;;;;;;-0.94;77.93;99980.91;5071362;28;948;-56
2022/02/05 01:14:02;;;;;;;;;;;;;;;-1.09;78.20;99984.06;5071825;28;870;-56
2022/02/05 01:16:43;;;;;;;;;;;;;;;-1.18;78.19;99978.66;5071293;28;1004;-55
2022/02/05 01:19:19;;;;;;;;;;;;;;;-1.39;79.01;99977.69;5071482;28;815;-58
2022/02/05 01:21:51;;;;;;;;;;;;;;;-1.54;79.48;99977.03;5071201;28;1301;-56
2022/02/05 01:24:20;;;;;;;;;;;;;;;-1.69;79.73;99977.50;5071209;28;895;-56
2022/02/05 01:27:01;;;;;;;;;;;;;;;-1.61;79.92;99976.72;5071143;28;1910;-55
2022/02/05 01:31:58;;;;;;;;;;;;;;;-1.76;80.41;99979.88;5071220;28;668;-56
2022/02/05 01:34:38;;;;;;;;;;;;;;;-1.73;80.86;99977.34;5071421;28;915;-56
2022/02/05 01:53:31;;;;;;;;;;;;;;;-0.99;79.57;99963.97;5071065;28;862;-57
2022/02/05 01:59:12;;;;;;;;;;;;;;;-0.97;79.23;99962.53;5070951;28;664;-56
2022/02/05 02:04:52;;;;;;;;;;;;;;;-1.32;79.64;99973.41;5075205;28;665;-56
2022/02/05 02:15:41;;;;;;;;;;;;;;;-2.65;82.14;99974.41;5074500;28;1008;-56
2022/02/05 02:21:06;;;;;;;;;;;;;;;-2.80;82.22;99974.81;5086054;28;1451;-55
2022/02/05 02:23:54;;;;;;;;;;;;;;;-2.87;82.88;99967.13;5094611;28;1103;-56
2022/02/05 02:26:36;;;;;;;;;;;;;;;-2.92;83.03;99965.34;5094858;28;1981;-55
2022/02/05 02:29:22;;;;;;;;;;;;;;;-3.04;83.15;99962.41;5076434;28;2353;-56
2022/02/05 02:31:50;;;;;;;;;;;;;;;-3.07;83.73;99965.72;5094761;28;970;-55
2022/02/05 02:34:22;;;;;;;;;;;;;;;-3.09;84.25;99967.94;5094654;28;807;-55
2022/02/05 02:36:56;;;;;;;;;;;;;;;-3.13;83.82;99969.66;5094416;28;1023;-56
2022/02/05 02:39:35;;;;;;;;;;;;;;;-3.19;84.50;99960.06;5094681;28;838;-55
2022/02/05 02:42:07;;;;;;;;;;;;;;;-3.25;84.57;99959.38;5076107;28;1333;-55
2022/02/05 02:44:33;;;;;;;;;;;;;;;-3.36;85.07;99952.59;5094274;28;950;-56
2022/02/05 02:47:00;;;;;;;;;;;;;;;-3.38;85.87;99950.22;5094328;28;1889;-55
2022/02/05 02:49:46;;;;;;;;;;;;;;;-3.42;85.19;99943.00;5094035;28;886;-55
2022/02/05 02:57:50;;;;;;;;;;;;;;;-3.78;86.20;99950.00;5094655;28;684;-55
2022/02/05 03:00:17;;;;;;;;;;;;;;;-3.85;85.90;99948.81;5093961;28;927;-55
2022/02/05 03:02:44;;;;;;;;;;;;;;;-4.03;86.43;99942.44;5094008;28;807;-55
2022/02/05 03:05:10;;;;;;;;;;;;;;;-4.09;87.15;99938.25;5093956;28;819;-55
2022/02/05 03:07:37;;;;;;;;;;;;;;;-4.08;87.65;99937.16;5093870;28;1890;-55
2022/02/05 03:10:03;;;;;;;;;;;;;;;-4.12;87.70;99945.03;5093938;28;905;-55
2022/02/05 03:12:30;;;;;;;;;;;;;;;-4.05;87.86;99948.16;5093412;28;878;-55
2022/02/05 03:14:57;;;;;;;;;;;;;;;-3.99;87.69;99952.34;5093999;28;871;-55
2022/02/05 03:17:25;;;;;;;;;;;;;;;-4.06;87.36;99951.16;5094064;28;905;-55
2022/02/05 03:19:55;;;;;;;;;;;;;;;-4.20;87.67;99948.47;5093453;28;886;-55
2022/02/05 03:22:21;;;;;;;;;;;;;;;-4.32;88.48;99957.03;5093347;28;1082;-56
2022/02/05 03:24:49;;;;;;;;;;;;;;;-4.34;88.88;99954.63;5093582;28;787;-55
2022/02/05 03:27:16;;;;;;;;;;;;;;;-4.38;89.00;99956.31;5093434;28;1968;-56
2022/02/05 03:29:46;;;;;;;;;;;;;;;-4.44;88.84;99949.41;5093482;28;827;-56
2022/02/05 03:32:13;;;;;;;;;;;;;;;-4.40;89.67;99939.63;5093357;28;933;-56
2022/02/05 03:34:40;;;;;;;;;;;;;;;-4.35;89.57;99946.84;5093354;28;807;-56
2022/02/05 03:37:06;;;;;;;;;;;;;;;-4.31;89.87;99943.25;5093273;28;941;-55
2022/02/05 03:39:33;;;;;;;;;;;;;;;-4.39;89.15;99943.94;5093271;28;862;-56
2022/02/05 03:42:01;;;;;;;;;;;;;;;-4.48;89.36;99944.94;5093454;28;807;-56
2022/02/05 03:44:27;;;;;;;;;;;;;;;-4.56;89.73;99944.53;5093280;28;788;-56
2022/02/05 03:46:54;;;;;;;;;;;;;;;-4.58;89.84;99945.94;5098823;28;1937;-56
2022/02/05 03:49:22;;;;;;;;;;;;;;;-4.48;90.17;99945.75;5096891;28;915;-55
2022/02/05 03:51:49;;;;;;;;;;;;;;;-4.43;90.41;99940.25;5092882;28;800;-56
2022/02/05 03:54:18;;;;;;;;;;;;;;;-4.42;90.64;99946.44;5093013;28;882;-55
2022/02/05 03:56:45;;;;;;;;;;;;;;;-4.41;90.50;99948.06;5092839;28;881;-55
2022/02/05 03:59:12;;;;;;;;;;;;;;;-4.44;90.50;99954.81;5092938;28;886;-55
2022/02/05 04:01:39;;;;;;;;;;;;;;;-4.35;90.90;99954.94;5092754;28;1018;-55
2022/02/05 04:04:04;;;;;;;;;;;;;;;-4.20;91.19;99956.56;5092878;28;890;-55
2022/02/05 04:06:30;;;;;;;;;;;;;;;-4.16;90.42;99946.72;5092446;28;1926;-55
2022/02/05 04:09:01;;;;;;;;;;;;;;;-4.01;90.78;99956.44;5092682;28;930;-55
2022/02/05 04:11:36;;;;;;;;;;;;;;;-3.89;90.61;99954.03;5092903;28;862;-55
2022/02/05 04:16:48;;;;;;;;;;;;;;;-3.92;90.31;99949.25;5093642;28;1024;-55
2022/02/05 04:19:18;;;;;;;;;;;;;;;-3.91;90.09;99945.44;5092545;28;1016;-55
2022/02/05 04:21:45;;;;;;;;;;;;;;;-3.79;90.87;99950.31;5092623;28;1475;-56
2022/02/05 04:24:11;;;;;;;;;;;;;;;-3.68;91.03;99953.59;5091835;28;815;-55
2022/02/05 04:26:38;;;;;;;;;;;;;;;-3.55;90.25;99948.16;5092633;28;1909;-55
2022/02/05 04:29:11;;;;;;;;;;;;;;;-3.64;90.51;99947.28;5092622;28;949;-55
2022/02/05 04:31:38;;;;;;;;;;;;;;;-3.74;90.20;99952.91;5092215;28;918;-55
2022/02/05 04:34:05;;;;;;;;;;;;;;;-3.71;90.44;99952.31;5092136;28;860;-56
2022/02/05 04:36:32;;;;;;;;;;;;;;;-3.66;90.67;99954.88;5092271;28;866;-55
2022/02/05 04:39:06;;;;;;;;;;;;;;;-3.64;90.17;99955.38;5092183;28;921;-55
2022/02/05 04:41:42;;;;;;;;;;;;;;;-3.68;90.82;99946.28;5092015;28;867;-55
2022/02/05 04:47:27;;;;;;;;;;;;;;;-3.87;89.99;99953.72;5091980;28;1960;-55
2022/02/05 04:52:48;;;;;;;;;;;;;;;-3.84;90.49;99951.22;5092030;28;664;-55
2022/02/05 05:04:01;;;;;;;;;;;;;;;-4.21;90.14;99953.03;5091851;28;660;-55
2022/02/05 05:09:48;;;;;;;;;;;;;;;-4.30;91.16;99965.63;5009733;28;1239;-55
2022/02/05 05:20:21;;;;;;;;;;;;;;;-4.21;91.25;99953.03;5091932;28;593;-55
2022/02/05 05:22:48;;;;;;;;;;;;;;;-4.23;91.63;99952.53;5091284;28;1112;-55
2022/02/05 05:25:15;;;;;;;;;;;;;;;-4.20;91.70;99956.56;5091426;28;933;-55
2022/02/05 05:27:40;;;;;;;;;;;;;;;-4.05;92.04;99963.53;5091514;28;1971;-55
2022/02/05 05:30:07;;;;;;;;;;;;;;;-3.89;91.93;99962.13;5073327;28;754;-55
2022/02/05 05:32:34;;;;;;;;;;;;;;;-3.98;91.22;99964.72;5091425;28;926;-55
2022/02/05 05:35:01;;;;;;;;;;;;;;;-3.94;92.09;99964.94;5091683;28;861;-55
2022/02/05 05:37:27;;;;;;;;;;;;;;;-3.88;91.99;99961.03;5095602;28;887;-55
2022/02/05 05:39:54;;;;;;;;;;;;;;;-3.81;91.93;99963.31;5095619;28;1043;-55
2022/02/05 05:42:27;;;;;;;;;;;;;;;-3.66;92.14;99973.00;5095473;28;894;-55
2022/02/05 05:53:02;;;;;;;;;;;;;;;-3.29;91.27;99974.59;5095417;28;743;-55
2022/02/05 05:55:29;;;;;;;;;;;;;;;-3.21;91.49;99968.47;5095298;28;867;-55
2022/02/05 05:57:56;;;;;;;;;;;;;;;-3.12;91.62;99977.44;5077003;28;1690;-55
2022/02/05 06:00:22;;;;;;;;;;;;;;;-2.90;91.44;99973.97;5095127;28;933;-55
2022/02/05 06:02:49;;;;;;;;;;;;;;;-2.91;90.55;99969.63;5095084;28;842;-55
2022/02/05 06:05:16;;;;;;;;;;;;;;;-2.57;92.16;99975.59;5095043;28;807;-55
2022/02/05 06:07:43;;;;;;;;;;;;;;;-2.61;90.27;99980.81;5094990;28;1894;-55
2022/02/05 06:10:10;;;;;;;;;;;;;;;-2.80;89.94;99982.91;5095063;28;850;-55
2022/02/05 06:12:37;;;;;;;;;;;;;;;-2.70;91.57;99994.28;5094875;28;846;-55
2022/02/05 06:15:07;;;;;;;;;;;;;;;-1.99;90.13;99992.72;5094961;28;988;-55
2022/02/05 06:17:33;;;;;;;;;;;;;;;-1.71;87.14;99999.50;5095291;28;775;-55
2022/02/05 06:19:59;;;;;;;;;;;;;;;-1.99;86.63;100003.56;5076773;28;1206;-55
2022/02/05 06:22:28;;;;;;;;;;;;;;;-1.77;87.22;100008.91;5094620;28;1247;-55
2022/02/05 06:24:55;;;;;;;;;;;;;;;-1.54;86.06;100006.06;5094832;28;930;-55
2022/02/05 06:27:21;;;;;;;;;;;;;;;-1.32;84.82;100013.28;5095049;28;1909;-55
2022/02/05 06:29:47;;;;;;;;;;;;;;;-1.00;83.32;100013.91;5094729;28;823;-55
2022/02/05 06:32:15;;;;;;;;;;;;;;;-0.75;82.52;100012.31;5094657;28;815;-55
2022/02/05 06:34:42;;;;;;;;;;;;;;;-0.54;81.11;100015.94;5094993;28;884;-55
2022/02/05 06:37:08;;;;;;;;;;;;;;;-0.43;80.69;100010.97;5095382;28;752;-55
2022/02/05 06:39:35;;;;;;;;;;;;;;;-0.26;80.59;100010.91;5094723;28;946;-55
2022/02/05 06:42:02;;;;;;;;;;;;;;;0.06;80.26;100011.44;5094481;28;787;-56
2022/02/05 06:44:28;;;;;;;;;;;;;;;0.19;78.34;100010.44;5100582;28;956;-55
2022/02/05 06:46:54;;;;;;;;;;;;;;;0.53;77.83;100014.06;5093329;28;1945;-55
2022/02/05 06:49:25;;;;;;;;;;;;;;;0.99;76.08;100012.31;5076112;28;1628;-55
2022/02/05 06:51:52;;;;;;;;;;;;;;;1.06;75.66;100011.75;5094412;28;875;-56
2022/02/05 06:54:19;;;;;;;;;;;;;;;1.04;74.64;100005.84;5094420;28;952;-55
2022/02/05 06:56:45;;;;;;;;;;;;;;;1.27;73.01;100013.69;5094304;28;838;-55
2022/02/05 06:59:12;;;;;;;;;;;;;;;1.38;72.30;100015.63;5094610;28;862;-55
2022/02/05 07:01:38;;;;;;;;;;;;;;;1.63;72.37;100015.72;5094376;28;859;-55
2022/02/05 07:04:05;;;;;;;;;;;;;;;1.77;72.37;100013.50;5093946;28;791;-55
2022/02/05 07:06:32;;;;;;;;;;;;;;;1.77;71.30;100007.22;5093977;28;1935;-55
2022/02/05 07:09:00;;;;;;;;;;;;;;;2.01;71.59;100009.19;5093916;28;890;-55
2022/02/05 07:11:26;;;;;;;;;;;;;;;1.88;70.67;100010.31;5094106;28;755;-57
2022/02/05 07:13:55;;;;;;;;;;;;;;;1.89;70.96;100009.19;5093680;28;887;-57
2022/02/05 07:16:33;;;;;;;;;;;;;;;2.17;70.71;99998.41;5094152;28;889;-57
2022/02/05 07:19:22;;;;;;;;;;;;;;;2.59;70.29;100000.88;5093591;28;913;-56
2022/02/05 07:21:52;;;;;;;;;;;;;;;3.49;69.20;99990.53;5093450;28;2088;-55
2022/02/05 07:29:32;;;;;;;;;;;;;;;4.33;66.75;99994.16;5093563;28;676;-56
2022/02/05 07:31:59;;;;;;;;;;;;;;;4.69;64.81;99993.84;5093374;28;862;-56
2022/02/05 07:34:27;;;;;;;;;;;;;;;4.60;66.06;99990.50;5093429;28;819;-56
2022/02/05 07:36:59;;;;;;;;;;;;;;;4.76;65.48;99982.25;5093279;28;1035;-56
2022/02/05 07:39:26;;;;;;;;;;;;;;;4.74;64.19;99981.00;5093240;28;933;-56
2022/02/05 07:41:54;;;;;;;;;;;;;;;4.52;64.17;99969.59;5093129;28;799;-56
2022/02/05 07:44:21;;;;;;;;;;;;;;;4.14;63.83;99970.28;5093458;28;807;-57
2022/02/05 07:46:50;;;;;;;;;;;;;;;3.87;64.76;99976.28;5093660;28;1947;-58
2022/02/05 07:49:17;;;;;;;;;;;;;;;3.94;65.22;99962.00;5093483;28;927;-58
2022/02/05 07:51:44;;;;;;;;;;;;;;;4.03;66.44;99968.09;5093152;28;918;-57
2022/02/05 07:54:11;;;;;;;;;;;;;;;4.37;63.84;99954.78;5093154;28;858;-58
2022/02/05 07:56:42;;;;;;;;;;;;;;;4.39;65.01;99954.44;5093175;28;858;-58
2022/02/05 07:59:09;;;;;;;;;;;;;;;4.46;65.08;99958.13;5091858;28;854;-56
2022/02/05 08:01:35;;;;;;;;;;;;;;;4.76;63.55;99956.78;5093093;28;981;-57
2022/02/05 08:04:01;;;;;;;;;;;;;;;4.64;63.59;99957.72;5108873;28;907;-56
2022/02/05 08:06:28;;;;;;;;;;;;;;;4.60;63.42;99952.16;5092789;28;1952;-57
2022/02/05 08:08:59;;;;;;;;;;;;;;;4.56;63.19;99953.25;5092667;28;926;-57
2022/02/05 08:11:36;;;;;;;;;;;;;;;4.32;63.68;99951.56;5092586;28;929;-57
2022/02/05 08:14:07;;;;;;;;;;;;;;;3.88;65.75;99949.72;5092481;28;858;-57
2022/02/05 08:19:06;;;;;;;;;;;;;;;3.52;66.30;99962.53;5092491;28;797;-57
2022/02/05 08:21:33;;;;;;;;;;;;;;;3.54;65.98;99967.63;5092281;28;1230;-57
2022/02/05 08:23:59;;;;;;;;;;;;;;;3.52;66.95;99959.81;5092515;28;811;-58
2022/02/05 08:26:30;;;;;;;;;;;;;;;3.46;66.36;99959.25;5092487;28;1913;-58
2022/02/05 08:28:57;;;;;;;;;;;;;;;2.97;67.22;99961.44;5107488;28;913;-58
2022/02/05 08:31:24;;;;;;;;;;;;;;;2.53;68.29;99958.59;5092265;28;862;-58
2022/02/05 08:33:52;;;;;;;;;;;;;;;2.33;68.91;99966.59;5092248;28;967;-58
2022/02/05 08:36:21;;;;;;;;;;;;;;;2.11;71.07;99965.09;5093156;28;910;-57
2022/02/05 08:38:48;;;;;;;;;;;;;;;2.08;72.04;99957.63;5092146;28;898;-57
2022/02/05 08:41:14;;;;;;;;;;;;;;;2.03;71.88;99971.50;5092170;28;846;-57
2022/02/05 08:43:41;;;;;;;;;;;;;;;2.50;72.33;99973.72;5073748;28;1337;-57
2022/02/05 08:46:07;;;;;;;;;;;;;;;2.81;70.30;99975.00;5092132;28;957;-57
2022/02/05 08:48:34;;;;;;;;;;;;;;;3.06;70.79;99970.25;5091783;28;1874;-58
2022/02/05 08:51:00;;;;;;;;;;;;;;;3.22;69.38;99973.84;5091936;28;953;-58
2022/02/05 08:53:27;;;;;;;;;;;;;;;3.34;68.38;99962.03;5107674;28;881;-58
2022/02/05 08:55:53;;;;;;;;;;;;;;;3.46;69.43;99966.66;5091860;28;897;-57
2022/02/05 08:58:20;;;;;;;;;;;;;;;3.58;68.37;99963.84;5091767;28;848;-58
2022/02/05 09:00:49;;;;;;;;;;;;;;;3.92;69.75;99955.31;5091979;28;902;-57
2022/02/05 09:03:28;;;;;;;;;;;;;;;4.04;68.44;99963.41;5091849;28;803;-58
2022/02/05 09:05:55;;;;;;;;;;;;;;;3.95;68.40;99960.06;5092062;28;835;-58
2022/02/05 09:11:01;;;;;;;;;;;;;;;3.91;67.65;99961.94;5091382;28;708;-58
2022/02/05 09:15:55;;;;;;;;;;;;;;;4.21;67.16;99959.50;5091886;28;926;-58
2022/02/05 09:18:22;;;;;;;;;;;;;;;4.30;67.11;99960.91;5091522;28;986;-58
2022/02/05 09:20:48;;;;;;;;;;;;;;;4.47;66.97;99951.50;5091539;28;1219;-58
2022/02/05 09:23:15;;;;;;;;;;;;;;;4.58;65.98;99956.41;5091518;28;859;-58
2022/02/05 09:25:42;;;;;;;;;;;;;;;4.58;64.12;99961.91;5091781;28;898;-59
2022/02/05 09:28:09;;;;;;;;;;;;;;;4.54;65.87;99948.13;5091480;28;1906;-58
2022/02/05 09:31:00;;;;;;;;;;;;;;;4.50;66.12;99941.78;5091337;28;941;-58
2022/02/05 09:33:29;;;;;;;;;;;;;;;4.50;65.56;99937.13;5091506;28;1191;-58
2022/02/05 09:35:56;;;;;;;;;;;;;;;4.68;66.72;99942.97;5091642;28;896;-58
2022/02/05 09:38:22;;;;;;;;;;;;;;;4.91;65.33;99939.53;5091563;28;791;-58
2022/02/05 09:40:49;;;;;;;;;;;;;;;5.16;64.35;99939.19;5091246;28;953;-58
2022/02/05 09:43:22;;;;;;;;;;;;;;;5.11;64.10;99930.13;5091216;28;823;-58
2022/02/05 09:45:48;;;;;;;;;;;;;;;5.12;64.96;99922.69;5091990;28;866;-58
2022/02/05 09:48:17;;;;;;;;;;;;;;;5.28;65.00;99926.13;5091640;28;1955;-58
2022/02/05 09:50:42;;;;;;;;;;;;;;;5.43;64.55;99926.38;5091672;28;810;-58
2022/02/05 09:53:19;;;;;;;;;;;;;;;5.49;64.12;99920.25;5107587;28;751;-58
2022/02/05 09:55:47;;;;;;;;;;;;;;;5.63;62.97;99918.88;5091256;28;1038;-59
2022/02/05 09:58:15;;;;;;;;;;;;;;;5.54;63.17;99927.38;5091354;28;881;-58
2022/02/05 10:00:42;;;;;;;;;;;;;;;5.65;63.82;99914.63;5091232;28;860;-58
2022/02/05 10:03:26;;;;;;;;;;;;;;;5.64;62.30;99913.03;5091268;28;827;-59
2022/02/05 10:06:06;;;;;;;;;;;;;;;5.89;62.45;99901.69;5091175;28;931;-58
2022/02/05 10:08:33;;;;;;;;;;;;;;;6.23;60.00;99912.78;5072932;28;1881;-58
2022/02/05 10:10:59;;;;;;;;;;;;;;;6.40;60.03;99909.53;5091451;28;822;-58
2022/02/05 10:13:27;;;;;;;;;;;;;;;6.27;59.81;99903.47;5090914;28;849;-58
2022/02/05 10:15:55;;;;;;;;;;;;;;;6.32;59.61;99911.38;5107266;28;901;-58
2022/02/05 10:18:30;;;;;;;;;;;;;;;6.40;59.64;99908.72;5091759;28;759;-58
2022/02/05 10:21:00;;;;;;;;;;;;;;;6.30;57.56;99893.69;5090703;28;1223;-58
2022/02/05 10:23:27;;;;;;;;;;;;;;;6.11;59.43;99897.34;5075394;28;1448;-58
2022/02/05 10:25:54;;;;;;;;;;;;;;;6.45;60.13;99892.72;5094594;28;858;-58
2022/02/05 10:28:22;;;;;;;;;;;;;;;6.52;60.11;99892.03;5094995;28;1977;-59
2022/02/05 10:30:52;;;;;;;;;;;;;;;6.29;60.02;99890.16;5094731;28;850;-59
2022/02/05 10:33:31;;;;;;;;;;;;;;;6.43;59.58;99883.28;5094606;28;827;-59
2022/02/05 10:36:23;;;;;;;;;;;;;;;6.48;59.32;99880.97;5076351;28;2262;-59
2022/02/05 10:39:53;;;;;;;;;;;;;;;6.43;58.98;99872.31;5109982;28;1284;-59
2022/02/05 10:44:32;;;;;;;;;;;;;;;6.74;59.66;99862.84;5094791;28;833;-59
2022/02/05 10:46:59;;;;;;;;;;;;;;;6.90;60.27;99868.16;5075983;28;1953;-59
2022/02/05 10:49:49;;;;;;;;;;;;;;;6.87;59.83;99866.13;5094295;28;819;-59
2022/02/05 10:52:26;;;;;;;;;;;;;;;7.02;60.90;99864.31;5075975;28;1311;-59
2022/02/05 10:55:39;;;;;;;;;;;;;;;7.13;60.56;99860.53;5075881;28;1358;-59
2022/02/05 10:58:10;;;;;;;;;;;;;;;7.35;59.57;99853.28;5082743;28;1639;-59
2022/02/05 11:05:53;;;;;;;;;;;;;;;7.45;59.73;99831.75;5094333;28;685;-59
2022/02/05 11:08:21;;;;;;;;;;;;;;;7.35;59.35;99836.00;5075530;28;1890;-59
2022/02/05 11:18:39;;;;;;;;;;;;;;;7.21;61.08;99827.59;5093655;28;712;-59
2022/02/05 11:21:06;;;;;;;;;;;;;;;7.24;60.03;99816.66;5093571;28;1241;-59
2022/02/05 11:23:34;;;;;;;;;;;;;;;7.32;60.42;99812.00;5093582;28;820;-59
2022/02/05 11:26:02;;;;;;;;;;;;;;;7.35;60.83;99811.25;5093507;28;887;-59
2022/02/05 11:28:43;;;;;;;;;;;;;;;7.43;61.28;99804.63;5075370;28;1917;-59
2022/02/05 11:31:12;;;;;;;;;;;;;;;7.56;60.21;99805.91;5075624;28;1428;-59
2022/02/05 11:33:39;;;;;;;;;;;;;;;7.46;61.34;99801.09;5075230;28;1310;-59
2022/02/05 11:38:57;;;;;;;;;;;;;;;7.58;61.27;99802.78;5109138;28;719;-59
2022/02/05 11:41:32;;;;;;;;;;;;;;;7.79;60.76;99785.63;5074996;28;1346;-59
2022/02/05 11:44:19;;;;;;;;;;;;;;;7.80;60.70;99800.16;5093185;28;841;-59
2022/02/05 11:47:04;;;;;;;;;;;;;;;8.16;59.74;99803.91;5075044;28;1971;-59
2022/02/05 11:49:49;;;;;;;;;;;;;;;8.35;59.17;99806.34;5093243;28;839;-59
2022/02/05 11:52:33;;;;;;;;;;;;;;;8.34;59.55;99807.53;5108710;28;1314;-59
2022/02/05 11:55:01;;;;;;;;;;;;;;;8.41;58.33;99798.53;5093469;28;799;-59
2022/02/05 11:57:43;;;;;;;;;;;;;;;8.52;57.48;99796.63;5093015;28;885;-59
2022/02/05 12:00:24;;;;;;;;;;;;;;;8.51;57.96;99799.75;5074645;28;1290;-59
2022/02/05 12:02:59;;;;;;;;;;;;;;;8.39;55.74;99793.38;5074581;28;1176;-59
2022/02/05 12:05:39;;;;;;;;;;;;;;;8.46;56.54;99797.38;5074935;28;1170;-59
2022/02/05 12:08:05;;;;;;;;;;;;;;;8.63;56.07;99793.09;5074595;28;1886;-59
2022/02/05 12:10:37;;;;;;;;;;;;;;;8.86;57.38;99790.78;5074355;28;1411;-59
2022/02/05 12:13:15;;;;;;;;;;;;;;;9.05;55.73;99791.63;5093060;28;878;-59
2022/02/05 12:16:06;;;;;;;;;;;;;;;8.92;55.31;99780.19;5074752;28;1406;-59
2022/02/05 12:18:52;;;;;;;;;;;;;;;9.01;56.18;99791.59;5074700;28;2049;-59
2022/02/05 12:21:27;;;;;;;;;;;;;;;9.32;56.23;99783.72;5092342;28;1489;-59
2022/02/05 12:26:33;;;;;;;;;;;;;;;9.37;55.05;99794.38;5093111;28;1971;-59
2022/02/05 12:29:19;;;;;;;;;;;;;;;9.53;55.30;99783.72;5074247;28;1267;-59
2022/02/05 12:31:50;;;;;;;;;;;;;;;9.64;54.55;99786.47;5092671;28;2609;-59
2022/02/05 12:34:16;;;;;;;;;;;;;;;9.52;54.51;99781.38;5092600;28;859;-59
2022/02/05 12:36:46;;;;;;;;;;;;;;;9.44;54.68;99777.03;5092391;28;947;-59
2022/02/05 12:39:13;;;;;;;;;;;;;;;9.44;54.54;99774.28;5092194;28;890;-59
2022/02/05 12:41:48;;;;;;;;;;;;;;;9.52;54.57;99793.19;5092149;28;946;-59
2022/02/05 12:44:15;;;;;;;;;;;;;;;9.61;54.44;99790.03;5092819;28;835;-59
2022/02/05 12:46:55;;;;;;;;;;;;;;;9.51;54.25;99793.56;5073257;28;1946;-59
2022/02/05 12:49:28;;;;;;;;;;;;;;;9.47;53.89;99777.03;5091961;28;803;-59
2022/02/05 12:51:58;;;;;;;;;;;;;;;9.66;54.07;99766.75;5073749;28;1314;-59
2022/02/05 12:54:27;;;;;;;;;;;;;;;9.78;53.14;99756.09;5073873;28;1576;-59
2022/02/05 12:56:55;;;;;;;;;;;;;;;10.00;53.16;99762.31;5073721;28;1073;-59
2022/02/05 12:59:29;;;;;;;;;;;;;;;10.06;53.07;99762.72;5074002;28;1339;-60
2022/02/05 13:01:58;;;;;;;;;;;;;;;9.88;53.02;99770.25;5090349;28;1201;-59
2022/02/05 13:04:25;;;;;;;;;;;;;;;9.81;53.86;99784.84;5091728;28;929;-59
2022/02/05 13:07:07;;;;;;;;;;;;;;;9.67;53.88;99776.63;5091675;28;1933;-59
2022/02/05 13:09:47;;;;;;;;;;;;;;;9.81;53.64;99766.34;5073518;28;1504;-59
2022/02/05 13:12:15;;;;;;;;;;;;;;;9.81;53.40;99765.53;5073482;28;1211;-59
2022/02/05 13:14:55;;;;;;;;;;;;;;;9.76;53.46;99775.00;5107343;28;775;-59
2022/02/05 13:18:08;;;;;;;;;;;;;;;9.78;53.41;99766.34;5073467;28;1203;-59
2022/02/05 13:25:50;;;;;;;;;;;;;;;9.58;53.57;99769.53;5091951;28;612;-59
2022/02/05 13:28:34;;;;;;;;;;;;;;;9.43;54.41;99776.25;5073382;28;1972;-59
2022/02/05 13:36:39;;;;;;;;;;;;;;;9.37;55.25;99775.84;5091535;28;719;-59
2022/02/05 13:39:24;;;;;;;;;;;;;;;9.51;55.34;99779.78;5073292;28;1445;-59
2022/02/05 13:42:01;;;;;;;;;;;;;;;9.64;55.32;99778.19;5091605;28;933;-59
2022/02/05 13:44:57;;;;;;;;;;;;;;;9.70;55.51;99784.09;5091478;28;823;-59
2022/02/05 13:47:31;;;;;;;;;;;;;;;9.64;55.20;99789.22;5087373;28;1866;-59
2022/02/05 13:50:15;;;;;;;;;;;;;;;9.35;55.10;99800.28;5091393;28;811;-59
2022/02/05 13:52:48;;;;;;;;;;;;;;;9.23;55.66;99802.66;5073317;28;1294;-60
2022/02/05 13:55:19;;;;;;;;;;;;;;;9.05;55.87;99797.13;5073193;28;1247;-59
2022/02/05 13:57:56;;;;;;;;;;;;;;;8.95;56.23;99804.97;5094526;28;878;-59
2022/02/05 14:00:23;;;;;;;;;;;;;;;8.88;56.66;99798.69;5077076;28;1343;-60
2022/02/05 14:02:57;;;;;;;;;;;;;;;8.88;57.37;99815.22;5095446;28;964;-59
2022/02/05 14:05:25;;;;;;;;;;;;;;;8.79;57.53;99801.81;5076889;28;1321;-59
2022/02/05 14:07:51;;;;;;;;;;;;;;;8.73;57.73;99814.41;5060383;28;1910;-58
2022/02/05 14:10:23;;;;;;;;;;;;;;;8.64;57.33;99811.19;5095201;28;906;-58
2022/02/05 14:12:50;;;;;;;;;;;;;;;8.64;57.73;99809.25;5095041;28;893;-59
2022/02/05 14:15:17;;;;;;;;;;;;;;;8.45;58.13;99801.28;5094965;28;965;-59
2022/02/05 14:17:48;;;;;;;;;;;;;;;8.35;58.92;99800.84;5060507;28;1207;-59
2022/02/05 14:20:16;;;;;;;;;;;;;;;8.07;60.02;99800.72;5076816;28;1234;-59
2022/02/05 14:22:49;;;;;;;;;;;;;;;8.10;60.72;99802.69;5076486;28;1214;-58
2022/02/05 14:25:28;;;;;;;;;;;;;;;8.12;60.82;99806.63;5076586;28;1235;-60
2022/02/05 14:28:16;;;;;;;;;;;;;;;8.12;61.12;99808.59;5094962;28;1975;-60
2022/02/05 14:31:02;;;;;;;;;;;;;;;8.11;61.47;99801.53;5094729;28;934;-60
2022/02/05 14:33:50;;;;;;;;;;;;;;;8.17;61.32;99800.78;5096638;28;1175;-59
2022/02/05 14:41:59;;;;;;;;;;;;;;;8.06;62.21;99813.69;5115326;28;616;-59
2022/02/05 14:44:26;;;;;;;;;;;;;;;7.81;62.42;99818.25;5096556;28;1358;-59
2022/02/05 14:46:53;;;;;;;;;;;;;;;7.64;63.03;99814.19;5114811;28;1952;-59
2022/02/05 14:49:20;;;;;;;;;;;;;;;7.39;63.10;99820.31;5096678;28;1361;-59
2022/02/05 14:51:47;;;;;;;;;;;;;;;7.15;64.83;99825.22;5114808;28;875;-59
2022/02/05 14:54:14;;;;;;;;;;;;;;;6.89;65.12;99831.66;5114712;28;815;-59
2022/02/05 14:56:41;;;;;;;;;;;;;;;6.65;66.13;99830.19;5114821;28;874;-59
2022/02/05 14:59:08;;;;;;;;;;;;;;;6.46;66.51;99831.13;5114642;28;897;-59
2022/02/05 15:01:35;;;;;;;;;;;;;;;6.30;66.59;99823.09;5114620;28;929;-60
2022/02/05 15:04:03;;;;;;;;;;;;;;;6.13;67.17;99823.69;5114504;28;846;-59
2022/02/05 15:06:32;;;;;;;;;;;;;;;5.92;67.92;99822.19;5096034;28;1945;-59
2022/02/05 15:09:00;;;;;;;;;;;;;;;5.69;69.19;99827.72;5129407;27;1774;-59
2022/02/05 15:11:28;;;;;;;;;;;;;;;5.51;69.46;99827.44;5096078;28;1407;-59
2022/02/05 15:14:01;;;;;;;;;;;;;;;5.45;70.59;99834.41;5114282;28;913;-59
2022/02/05 15:16:29;;;;;;;;;;;;;;;5.33;70.96;99831.84;5095949;28;1329;-59
2022/02/05 15:18:57;;;;;;;;;;;;;;;5.19;71.33;99826.16;5096006;28;1312;-59
2022/02/05 15:21:26;;;;;;;;;;;;;;;5.03;72.25;99824.28;5085609;28;1244;-59
2022/02/05 15:23:53;;;;;;;;;;;;;;;4.86;72.91;99827.50;5073464;28;803;-59
2022/02/05 15:26:20;;;;;;;;;;;;;;;4.67;73.28;99831.06;5073455;28;807;-59
2022/02/05 15:28:47;;;;;;;;;;;;;;;4.47;73.86;99822.84;5055361;28;1914;-59
2022/02/05 15:31:14;;;;;;;;;;;;;;;4.28;74.28;99815.44;5055373;28;1305;-59
2022/02/05 15:33:43;;;;;;;;;;;;;;;4.16;75.39;99823.81;5073570;28;898;-60
2022/02/05 15:36:14;;;;;;;;;;;;;;;4.09;75.88;99818.94;5055262;28;1331;-59
2022/02/05 15:43:53;;;;;;;;;;;;;;;4.12;77.25;99820.19;5072996;28;883;-59
2022/02/05 15:46:21;;;;;;;;;;;;;;;3.87;77.40;99819.66;5055155;28;1216;-59
2022/02/05 15:48:48;;;;;;;;;;;;;;;3.36;78.91;99823.16;5054752;28;1914;-59
2022/02/05 15:51:15;;;;;;;;;;;;;;;2.96;80.44;99832.28;5072823;28;820;-59
2022/02/05 15:53:56;;;;;;;;;;;;;;;2.75;81.90;99835.25;5072770;28;926;-60
2022/02/05 15:56:31;;;;;;;;;;;;;;;2.77;82.70;99837.63;5054829;28;1325;-59
2022/02/05 15:59:01;;;;;;;;;;;;;;;2.73;82.55;99844.91;5072746;28;930;-59
2022/02/05 16:01:29;;;;;;;;;;;;;;;2.54;83.43;99848.28;5072606;28;927;-59
2022/02/05 16:03:56;;;;;;;;;;;;;;;2.63;83.03;99851.69;5072624;28;827;-59
2022/02/05 16:06:22;;;;;;;;;;;;;;;2.61;83.26;99852.03;5072523;28;877;-59
2022/02/05 16:08:49;;;;;;;;;;;;;;;2.51;83.23;99857.97;5072507;28;1964;-59
2022/02/05 16:11:17;;;;;;;;;;;;;;;2.46;83.66;99874.59;5054574;28;1190;-59
2022/02/05 16:13:47;;;;;;;;;;;;;;;2.37;82.89;99872.00;5072813;28;823;-59
2022/02/05 16:16:14;;;;;;;;;;;;;;;2.25;83.50;99878.28;5054587;28;946;-59
2022/02/05 16:18:43;;;;;;;;;;;;;;;2.22;84.20;99883.66;5072456;28;873;-59
2022/02/05 16:21:10;;;;;;;;;;;;;;;2.11;84.67;99894.22;5075797;28;1213;-59